Time;durP1;ratioP1;P1;durP2;ratioP2;P2;SDS_P1;SDS_P2;PMS_P1;PMS_P2;Temp;Humidity;BMP_temperature;BMP_pressure;BME280_temperature;BME280_humidity;BME280_pressure;Samples;Min_cycle;Max_cycle;Signal;HPM_P1;HPM_P2
2024/03/14 00:00:25;;;;;;;6.10;4.03;;;13.30;99.90;;;;;;2084062;28;20097;-64
2024/03/14 00:01:31;;;;;;;5.32;4.30;;;13.30;99.90;;;;;;2076438;28;20021;-66
2024/03/14 00:02:31;;;;;;;5.90;4.07;;;13.30;99.90;;;;;;2078153;28;20108;-64
2024/03/14 00:03:32;;;;;;;7.68;4.65;;;13.30;99.90;;;;;;2076392;28;20030;-65
2024/03/14 00:04:33;;;;;;;6.10;4.63;;;13.30;99.90;;;;;;2077640;28;20484;-64
2024/03/14 00:05:33;;;;;;;7.45;4.75;;;13.30;99.90;;;;;;2078906;28;20025;-65
2024/03/14 00:06:34;;;;;;;5.47;4.05;;;13.30;99.90;;;;;;2076192;28;20022;-65
2024/03/14 00:07:34;;;;;;;8.93;5.18;;;13.40;99.90;;;;;;2080205;28;20059;-66
2024/03/14 00:08:35;;;;;;;9.73;4.15;;;13.30;99.90;;;;;;2077440;28;20025;-64
2024/03/14 00:09:36;;;;;;;6.75;4.35;;;13.30;99.90;;;;;;2078018;28;20025;-64
2024/03/14 00:10:37;;;;;;;6.35;4.85;;;13.30;99.90;;;;;;2078637;28;20030;-64
2024/03/14 00:11:38;;;;;;;6.00;4.40;;;13.30;99.90;;;;;;2076619;28;20025;-64
2024/03/14 00:12:39;;;;;;;6.22;4.72;;;13.30;99.90;;;;;;2078850;28;20084;-66
2024/03/14 00:13:39;;;;;;;4.80;4.28;;;13.30;99.90;;;;;;2075179;28;20037;-64
2024/03/14 00:14:50;;;;;;;6.82;4.80;;;13.30;99.90;;;;;;2075986;28;20057;-66
2024/03/14 00:15:55;;;;;;;6.32;4.47;;;13.30;99.90;;;;;;2076086;28;20076;-66
2024/03/14 00:16:55;;;;;;;5.90;4.57;;;13.30;99.90;;;;;;2076308;28;20403;-65
2024/03/14 00:17:57;;;;;;;6.15;3.88;;;13.30;99.90;;;;;;2076979;28;20025;-64
2024/03/14 00:18:59;;;;;;;6.18;4.07;;;13.30;99.90;;;;;;2076685;28;20028;-66
2024/03/14 00:20:00;;;;;;;6.28;4.55;;;13.30;99.90;;;;;;2076001;28;20041;-63
2024/03/14 00:21:09;;;;;;;5.40;4.30;;;13.30;99.90;;;;;;2078129;28;20030;-66
2024/03/14 00:22:10;;;;;;;5.30;4.07;;;13.30;99.90;;;;;;2075479;28;20028;-66
2024/03/14 00:23:11;;;;;;;6.80;4.30;;;13.30;99.90;;;;;;2078215;28;20061;-66
2024/03/14 00:24:12;;;;;;;4.85;4.35;;;13.30;99.90;;;;;;2077174;28;20505;-67
2024/03/14 00:25:15;;;;;;;4.65;4.25;;;13.30;99.90;;;;;;2077195;28;20462;-65
2024/03/14 00:26:16;;;;;;;6.40;4.75;;;13.30;99.90;;;;;;2079536;28;20095;-67
2024/03/14 00:27:17;;;;;;;6.07;4.68;;;13.30;99.90;;;;;;2078965;28;20020;-65
2024/03/14 00:28:20;;;;;;;5.32;4.00;;;13.30;99.90;;;;;;2078578;28;20607;-64
2024/03/14 00:29:21;;;;;;;7.85;4.47;;;13.30;99.90;;;;;;2077267;28;20104;-65
2024/03/14 00:30:21;;;;;;;4.70;3.90;;;13.30;99.90;;;;;;2075907;28;20033;-63
2024/03/14 00:31:24;;;;;;;7.28;4.35;;;13.20;99.90;;;;;;2081202;28;20059;-65
2024/03/14 00:32:25;;;;;;;8.05;4.38;;;13.30;99.90;;;;;;2085104;28;20048;-64
2024/03/14 00:33:25;;;;;;;7.68;4.63;;;13.30;99.90;;;;;;2085043;28;20025;-65
2024/03/14 00:34:26;;;;;;;5.70;4.40;;;13.30;99.90;;;;;;2084376;28;20044;-65
2024/03/14 00:35:27;;;;;;;5.20;4.07;;;13.30;99.90;;;;;;2083291;28;20021;-65
2024/03/14 00:36:28;;;;;;;4.78;4.22;;;13.30;99.90;;;;;;2086077;28;20025;-65
2024/03/14 00:37:29;;;;;;;5.05;4.55;;;13.20;99.90;;;;;;2086803;28;20020;-65
2024/03/14 00:38:30;;;;;;;4.85;4.15;;;13.30;99.90;;;;;;2085608;28;20032;-63
2024/03/14 00:39:31;;;;;;;7.18;4.38;;;13.30;99.90;;;;;;2084120;28;20056;-66
2024/03/14 00:40:33;;;;;;;6.25;4.20;;;13.30;99.90;;;;;;2085804;28;20307;-66
2024/03/14 00:41:34;;;;;;;5.47;4.45;;;13.30;99.90;;;;;;2084963;28;20028;-66
2024/03/14 00:42:34;;;;;;;4.70;4.30;;;13.30;99.90;;;;;;2084227;28;20021;-65
2024/03/14 00:43:36;;;;;;;5.53;4.43;;;13.30;99.90;;;;;;2083290;28;20029;-66
2024/03/14 00:44:37;;;;;;;5.78;4.72;;;13.30;99.90;;;;;;2084105;28;20025;-66
2024/03/14 00:45:37;;;;;;;6.97;5.53;;;13.30;99.90;;;;;;2084240;28;20033;-67
2024/03/14 00:46:38;;;;;;;8.98;8.00;;;13.30;99.90;;;;;;2086070;28;20032;-66
2024/03/14 00:47:38;;;;;;;10.35;6.53;;;13.30;99.90;;;;;;2085609;28;20044;-66
2024/03/14 00:48:39;;;;;;;8.25;6.05;;;13.30;99.90;;;;;;2083624;28;20483;-65
2024/03/14 00:49:40;;;;;;;6.30;5.70;;;13.30;99.90;;;;;;2085570;28;20135;-64
2024/03/14 00:50:41;;;;;;;5.18;4.57;;;13.30;99.90;;;;;;2084860;28;20061;-64
2024/03/14 00:51:44;;;;;;;5.57;4.57;;;13.30;99.90;;;;;;2085051;28;20029;-66
2024/03/14 00:52:45;;;;;;;6.70;5.07;;;13.30;99.90;;;;;;2086942;28;20029;-66
2024/03/14 00:53:45;;;;;;;6.20;4.80;;;13.30;99.90;;;;;;2083425;28;20026;-66
2024/03/14 00:54:46;;;;;;;6.03;4.95;;;13.30;99.90;;;;;;2083167;28;20040;-66
2024/03/14 00:55:47;;;;;;;6.95;4.97;;;13.30;99.90;;;;;;2084343;28;20076;-66
2024/03/14 00:56:48;;;;;;;6.88;4.80;;;13.30;99.90;;;;;;2084623;28;20502;-67
2024/03/14 00:57:49;;;;;;;5.38;4.75;;;13.30;99.90;;;;;;2083186;28;20049;-66
2024/03/14 00:58:49;;;;;;;6.53;4.88;;;13.20;99.90;;;;;;2083971;28;20517;-66
2024/03/14 00:59:50;;;;;;;6.82;5.00;;;13.30;99.90;;;;;;2083197;28;20072;-67
2024/03/14 01:00:56;;;;;;;7.82;5.30;;;13.30;99.90;;;;;;2085616;28;20037;-65
2024/03/14 01:01:57;;;;;;;6.90;5.43;;;13.30;99.90;;;;;;2085044;28;20048;-64
2024/03/14 01:02:57;;;;;;;7.70;5.63;;;13.30;99.90;;;;;;2086512;28;20029;-64
2024/03/14 01:03:58;;;;;;;5.97;5.13;;;13.30;99.90;;;;;;2082720;28;20028;-64
2024/03/14 01:04:59;;;;;;;6.18;5.28;;;13.30;99.90;;;;;;2083099;28;20045;-65
2024/03/14 01:06:00;;;;;;;7.63;5.30;;;13.30;99.90;;;;;;2086221;28;20104;-63
2024/03/14 01:07:00;;;;;;;5.65;4.60;;;13.30;99.90;;;;;;2076687;28;20087;-64
2024/03/14 01:08:01;;;;;;;9.55;5.40;;;13.30;99.90;;;;;;2079848;28;20087;-65
2024/03/14 01:09:02;;;;;;;7.07;4.75;;;13.30;99.90;;;;;;2084464;28;20052;-66
2024/03/14 01:10:04;;;;;;;6.32;4.90;;;13.30;99.90;;;;;;2083243;28;20029;-64
2024/03/14 01:11:05;;;;;;;6.60;5.30;;;13.30;99.90;;;;;;2085749;28;20032;-64
2024/03/14 01:12:06;;;;;;;5.75;4.75;;;13.30;99.90;;;;;;2086109;28;20026;-66
2024/03/14 01:13:06;;;;;;;6.40;4.80;;;13.30;99.90;;;;;;2086190;28;20021;-67
2024/03/14 01:14:07;;;;;;;5.45;4.80;;;13.40;99.90;;;;;;2085322;28;20079;-65
2024/03/14 01:15:08;;;;;;;6.65;5.28;;;13.30;99.90;;;;;;2084714;28;20143;-64
2024/03/14 01:16:08;;;;;;;6.18;5.28;;;13.30;99.90;;;;;;2084957;28;20106;-63
2024/03/14 01:17:09;;;;;;;8.55;5.13;;;13.30;99.90;;;;;;2085480;28;20029;-63
2024/03/14 01:18:10;;;;;;;6.45;5.53;;;13.30;99.90;;;;;;2083050;28;20123;-66
2024/03/14 01:19:11;;;;;;;6.20;4.82;;;13.40;99.90;;;;;;2084501;28;20111;-67
2024/03/14 01:20:11;;;;;;;7.53;5.00;;;13.30;99.90;;;;;;2082906;28;20029;-66
2024/03/14 01:21:12;;;;;;;7.88;5.00;;;13.30;99.90;;;;;;2085089;28;20109;-64
2024/03/14 01:22:13;;;;;;;5.78;4.88;;;13.40;99.90;;;;;;2085943;28;20021;-67
2024/03/14 01:23:13;;;;;;;9.38;5.55;;;13.30;99.90;;;;;;2085562;28;20079;-64
2024/03/14 01:24:14;;;;;;;4.93;4.53;;;13.30;99.90;;;;;;2084504;28;20037;-64
2024/03/14 01:25:14;;;;;;;5.40;4.88;;;13.40;99.90;;;;;;2085323;28;20491;-65
2024/03/14 01:26:15;;;;;;;6.97;5.43;;;13.40;99.90;;;;;;2084135;28;20377;-65
2024/03/14 01:27:19;;;;;;;5.43;4.93;;;13.40;99.90;;;;;;2086004;28;20112;-64
2024/03/14 01:28:19;;;;;;;8.80;5.60;;;13.40;99.90;;;;;;2086511;28;20029;-64
2024/03/14 01:29:20;;;;;;;6.32;5.38;;;13.30;99.90;;;;;;2084691;28;20036;-67
2024/03/14 01:30:25;;;;;;;6.50;5.28;;;13.40;99.90;;;;;;2087388;28;20366;-66
2024/03/14 01:31:26;;;;;;;6.38;5.65;;;13.30;99.90;;;;;;2084717;28;20040;-66
2024/03/14 01:32:27;;;;;;;7.00;5.60;;;13.30;99.90;;;;;;2083624;28;20509;-66
2024/03/14 01:33:31;;;;;;;5.85;5.30;;;13.30;99.90;;;;;;2087243;28;20481;-65
2024/03/14 01:34:32;;;;;;;8.05;5.90;;;13.30;99.90;;;;;;2084435;28;20025;-64
2024/03/14 01:35:33;;;;;;;5.63;4.95;;;13.30;99.90;;;;;;2085861;28;20096;-65
2024/03/14 01:36:37;;;;;;;6.75;5.13;;;13.30;99.90;;;;;;2086140;28;20029;-64
2024/03/14 01:37:39;;;;;;;6.40;5.65;;;13.30;99.90;;;;;;2083032;28;20033;-64
2024/03/14 01:38:39;;;;;;;6.05;5.25;;;13.30;99.90;;;;;;2084883;28;20823;-67
2024/03/14 01:39:46;;;;;;;5.75;5.05;;;13.30;99.90;;;;;;2077971;28;20144;-66
2024/03/14 01:40:47;;;;;;;6.20;5.40;;;13.30;99.90;;;;;;2078464;28;20096;-66
2024/03/14 01:41:49;;;;;;;8.63;5.10;;;13.30;99.90;;;;;;2083540;28;20034;-66
2024/03/14 01:42:55;;;;;;;7.07;5.53;;;13.30;99.90;;;;;;2083936;28;20116;-67
2024/03/14 01:43:59;;;;;;;6.20;5.00;;;13.30;99.90;;;;;;2084927;28;20022;-63
2024/03/14 01:45:11;;;;;;;7.43;5.25;;;13.30;99.90;;;;;;2082983;28;20061;-66
2024/03/14 01:46:11;;;;;;;5.85;5.30;;;13.30;99.90;;;;;;2084886;28;20024;-65
2024/03/14 01:47:12;;;;;;;6.32;5.75;;;13.30;99.90;;;;;;2081886;28;20513;-65
2024/03/14 01:48:13;;;;;;;7.07;5.28;;;13.30;99.90;;;;;;2077871;28;20670;-66
2024/03/14 01:49:14;;;;;;;7.07;5.22;;;13.30;99.90;;;;;;2076216;28;20026;-65
2024/03/14 01:50:15;;;;;;;5.88;5.32;;;13.30;99.90;;;;;;2081815;28;20029;-66
2024/03/14 01:51:16;;;;;;;6.00;5.40;;;13.30;99.90;;;;;;2083308;28;20040;-65
2024/03/14 01:52:19;;;;;;;6.93;5.50;;;13.30;99.90;;;;;;2085817;28;20032;-66
2024/03/14 01:53:20;;;;;;;7.07;5.45;;;13.30;99.90;;;;;;2084657;28;20037;-67
2024/03/14 01:54:21;;;;;;;7.47;5.85;;;13.30;99.90;;;;;;2085374;28;20103;-66
2024/03/14 01:55:22;;;;;;;6.03;5.00;;;13.30;99.90;;;;;;2081684;28;20029;-65
2024/03/14 01:56:23;;;;;;;7.20;6.00;;;13.30;99.90;;;;;;2084566;28;20025;-66
2024/03/14 01:57:25;;;;;;;6.15;5.18;;;13.30;99.90;;;;;;2085042;28;20063;-65
2024/03/14 01:58:26;;;;;;;6.85;5.65;;;13.30;99.90;;;;;;2085454;28;20060;-66
2024/03/14 01:59:28;;;;;;;6.32;5.72;;;13.30;99.90;;;;;;2085427;28;20035;-65
2024/03/14 02:00:38;;;;;;;6.70;5.32;;;13.30;99.90;;;;;;2084923;28;20112;-65
2024/03/14 02:01:41;;;;;;;5.70;5.20;;;13.20;99.90;;;;;;2084832;28;20496;-65
2024/03/14 02:02:41;;;;;;;7.43;5.43;;;13.30;99.90;;;;;;2088136;28;20029;-66
2024/03/14 02:03:48;;;;;;;7.78;5.82;;;13.20;99.90;;;;;;2087250;28;20056;-65
2024/03/14 02:05:26;;;;;;;5.85;5.25;;;13.30;99.90;;;;;;2086974;28;20496;-66
2024/03/14 02:06:40;;;;;;;8.40;5.60;;;13.20;99.90;;;;;;2086479;28;20029;-65
2024/03/14 02:07:42;;;;;;;9.50;5.82;;;13.20;99.90;;;;;;2087138;28;20128;-65
2024/03/14 02:08:44;;;;;;;6.72;5.25;;;13.20;99.90;;;;;;2084658;28;20029;-67
2024/03/14 02:09:48;;;;;;;7.75;6.40;;;13.20;99.90;;;;;;2084202;28;20107;-67
2024/03/14 02:10:49;;;;;;;8.77;5.80;;;13.20;99.90;;;;;;2084116;28;20022;-66
2024/03/14 02:11:50;;;;;;;7.38;5.78;;;13.20;99.90;;;;;;2084212;28;20022;-65
2024/03/14 02:12:54;;;;;;;6.05;5.47;;;13.20;99.90;;;;;;2084610;28;20033;-65
2024/03/14 02:13:57;;;;;;;9.95;6.35;;;13.20;99.90;;;;;;2084496;28;20154;-64
2024/03/14 02:15:01;;;;;;;7.47;5.88;;;13.20;99.90;;;;;;2085392;28;20039;-64
2024/03/14 02:16:01;;;;;;;6.55;5.63;;;13.20;99.90;;;;;;2086599;28;20470;-65
2024/03/14 02:17:05;;;;;;;8.25;6.38;;;13.20;99.90;;;;;;2085757;28;20032;-66
2024/03/14 02:18:06;;;;;;;9.80;5.38;;;13.20;99.90;;;;;;2085398;28;20029;-67
2024/03/14 02:19:07;;;;;;;6.35;5.70;;;13.20;99.90;;;;;;2086411;28;20178;-64
2024/03/14 02:20:14;;;;;;;6.95;6.10;;;13.20;99.90;;;;;;2085822;28;20086;-65
2024/03/14 02:21:14;;;;;;;7.05;6.07;;;13.20;99.90;;;;;;2086614;28;20021;-65
2024/03/14 02:22:21;;;;;;;6.93;6.15;;;13.20;99.90;;;;;;2085159;28;20029;-65
2024/03/14 02:23:22;;;;;;;7.30;5.85;;;13.10;99.90;;;;;;2079321;28;20064;-65
2024/03/14 02:24:22;;;;;;;6.55;5.85;;;13.10;99.90;;;;;;2077775;28;20705;-66
2024/03/14 02:25:25;;;;;;;6.95;6.03;;;13.10;99.90;;;;;;2076997;28;20056;-66
2024/03/14 02:26:26;;;;;;;7.88;6.25;;;13.10;99.90;;;;;;2079268;28;20179;-65
2024/03/14 02:27:27;;;;;;;7.32;5.95;;;13.10;99.90;;;;;;2080532;28;20021;-65
2024/03/14 02:28:29;;;;;;;6.70;5.40;;;13.10;99.90;;;;;;2076895;28;20735;-65
2024/03/14 02:29:30;;;;;;;7.07;6.13;;;13.10;99.90;;;;;;2079517;28;20017;-66
2024/03/14 02:30:30;;;;;;;6.85;6.15;;;13.10;99.90;;;;;;2076374;28;20045;-66
2024/03/14 02:31:31;;;;;;;6.97;6.03;;;13.10;99.90;;;;;;2077912;28;20502;-65
2024/03/14 02:32:31;;;;;;;5.75;5.18;;;13.10;99.90;;;;;;2078913;28;20100;-66
2024/03/14 02:33:32;;;;;;;7.03;6.00;;;13.10;99.90;;;;;;2078703;28;20052;-65
2024/03/14 02:34:33;;;;;;;7.10;5.60;;;13.00;99.90;;;;;;2078083;28;20113;-65
2024/03/14 02:35:33;;;;;;;6.82;5.72;;;13.10;99.90;;;;;;2077483;28;20467;-64
2024/03/14 02:36:35;;;;;;;8.10;6.28;;;13.10;99.90;;;;;;2077731;28;20029;-64
2024/03/14 02:37:36;;;;;;;7.32;5.85;;;13.00;99.90;;;;;;2076782;28;20033;-64
2024/03/14 02:38:37;;;;;;;10.93;6.07;;;13.10;99.90;;;;;;2075776;28;20105;-64
2024/03/14 02:39:39;;;;;;;6.47;5.88;;;13.10;99.90;;;;;;2079213;28;20038;-63
2024/03/14 02:40:39;;;;;;;6.50;5.68;;;13.10;99.90;;;;;;2079815;28;20033;-64
2024/03/14 02:41:42;;;;;;;6.57;5.78;;;13.10;99.90;;;;;;2077743;28;20037;-63
2024/03/14 02:42:43;;;;;;;7.22;6.00;;;13.10;99.90;;;;;;2078680;28;20018;-65
2024/03/14 02:43:43;;;;;;;6.70;6.03;;;13.00;99.90;;;;;;2078948;28;20494;-64
2024/03/14 02:44:45;;;;;;;7.35;5.95;;;13.00;99.90;;;;;;2077486;28;20030;-65
2024/03/14 02:45:46;;;;;;;6.43;5.72;;;13.00;99.90;;;;;;2077873;28;20048;-65
2024/03/14 02:46:47;;;;;;;7.32;5.78;;;13.00;99.90;;;;;;2077748;28;20042;-65
2024/03/14 02:47:48;;;;;;;7.68;6.13;;;13.00;99.90;;;;;;2077490;28;20026;-65
2024/03/14 02:48:48;;;;;;;6.88;5.78;;;13.00;99.90;;;;;;2080166;28;20095;-65
2024/03/14 02:49:49;;;;;;;6.00;5.47;;;13.00;99.90;;;;;;2077100;28;20467;-64
2024/03/14 02:50:50;;;;;;;6.28;5.40;;;13.00;99.90;;;;;;2078166;28;20611;-64
2024/03/14 02:51:50;;;;;;;7.18;5.70;;;13.00;99.90;;;;;;2076121;28;20048;-64
2024/03/14 02:52:51;;;;;;;6.85;5.32;;;13.00;99.90;;;;;;2076498;28;20025;-64
2024/03/14 02:53:52;;;;;;;5.63;4.80;;;12.90;99.90;;;;;;2078976;28;20439;-63
2024/03/14 02:54:56;;;;;;;6.72;5.63;;;12.90;99.90;;;;;;2077697;28;20034;-65
2024/03/14 02:55:57;;;;;;;5.35;4.85;;;12.90;99.90;;;;;;2076959;28;20032;-63
2024/03/14 02:56:58;;;;;;;6.68;5.50;;;12.90;99.90;;;;;;2077336;28;20033;-63
2024/03/14 02:58:01;;;;;;;5.90;5.30;;;12.90;99.90;;;;;;2076144;28;20104;-67
2024/03/14 02:59:02;;;;;;;8.23;5.93;;;12.90;99.90;;;;;;2077949;28;20041;-64
2024/03/14 03:00:14;;;;;;;5.80;5.28;;;12.90;99.90;;;;;;2075731;28;20025;-66
2024/03/14 03:01:16;;;;;;;7.03;5.13;;;12.90;99.90;;;;;;2079458;28;20034;-65
2024/03/14 03:02:17;;;;;;;7.43;5.07;;;12.90;99.90;;;;;;2078971;28;20020;-66
2024/03/14 03:03:18;;;;;;;6.20;5.60;;;12.80;99.90;;;;;;2076777;28;20018;-65
2024/03/14 03:04:19;;;;;;;5.80;5.28;;;12.80;99.90;;;;;;2078909;28;20028;-65
2024/03/14 03:05:20;;;;;;;6.53;5.10;;;12.80;99.90;;;;;;2077097;28;20040;-63
2024/03/14 03:06:21;;;;;;;6.60;5.55;;;12.80;99.90;;;;;;2076275;28;20362;-63
2024/03/14 03:07:21;;;;;;;7.32;5.32;;;12.80;99.90;;;;;;2076551;28;20066;-63
2024/03/14 03:08:22;;;;;;;6.80;5.15;;;12.80;99.90;;;;;;2077761;28;20025;-64
2024/03/14 03:09:22;;;;;;;6.30;5.38;;;12.80;99.90;;;;;;2077738;28;20022;-66
2024/03/14 03:10:23;;;;;;;6.00;5.40;;;12.80;99.90;;;;;;2077890;28;20029;-65
2024/03/14 03:11:23;;;;;;;7.10;5.35;;;12.80;99.90;;;;;;2077325;28;20024;-64
2024/03/14 03:12:24;;;;;;;8.65;5.30;;;12.80;99.90;;;;;;2076299;28;20026;-64
2024/03/14 03:13:24;;;;;;;7.30;5.40;;;12.80;99.90;;;;;;2076614;28;20022;-64
2024/03/14 03:14:26;;;;;;;5.60;4.97;;;12.80;99.90;;;;;;2077773;28;20109;-65
2024/03/14 03:15:27;;;;;;;8.63;5.50;;;12.70;99.90;;;;;;2076553;28;20753;-66
2024/03/14 03:16:28;;;;;;;6.70;4.78;;;12.70;99.90;;;;;;2077225;28;20380;-64
2024/03/14 03:17:28;;;;;;;7.10;5.70;;;12.70;99.90;;;;;;2075658;28;20747;-64
2024/03/14 03:18:29;;;;;;;8.82;5.18;;;12.70;99.90;;;;;;2069004;28;20045;-66
2024/03/14 03:19:29;;;;;;;6.80;5.65;;;12.70;99.90;;;;;;2067448;28;20109;-63
2024/03/14 03:20:30;;;;;;;6.97;5.18;;;12.70;99.90;;;;;;2076134;28;20025;-66
2024/03/14 03:21:31;;;;;;;8.18;5.90;;;12.70;99.90;;;;;;2076334;28;20022;-65
2024/03/14 03:23:04;;;;;;;9.52;5.28;;;12.70;99.90;;;;;;2077799;28;20055;-65
2024/03/14 03:23:52;;;;;;;7.45;5.53;;;12.60;99.90;;;;;;2077914;28;20036;-66
2024/03/14 03:24:53;;;;;;;7.88;5.45;;;12.60;99.90;;;;;;2076031;28;20030;-65
2024/03/14 03:25:53;;;;;;;5.90;5.30;;;12.60;99.90;;;;;;2076335;28;20058;-65
2024/03/14 03:26:56;;;;;;;7.03;4.75;;;12.60;99.90;;;;;;2077274;28;20022;-65
2024/03/14 03:27:58;;;;;;;5.15;4.70;;;12.60;99.90;;;;;;2076715;28;20029;-67
2024/03/14 03:28:59;;;;;;;9.48;5.85;;;12.60;99.90;;;;;;2078480;28;20064;-65
2024/03/14 03:30:00;;;;;;;6.40;4.72;;;12.50;99.90;;;;;;2076824;28;20026;-66
2024/03/14 03:31:08;;;;;;;5.55;4.80;;;12.50;99.90;;;;;;2077102;28;20030;-65
2024/03/14 03:32:09;;;;;;;8.85;5.00;;;12.50;99.90;;;;;;2075183;28;20017;-65
2024/03/14 03:33:16;;;;;;;5.82;4.97;;;12.50;99.90;;;;;;2078904;28;20021;-66
2024/03/14 03:34:23;;;;;;;5.28;4.70;;;12.50;99.90;;;;;;2078620;28;20032;-65
2024/03/14 03:35:24;;;;;;;7.40;4.97;;;12.50;99.90;;;;;;2074939;28;20029;-65
2024/03/14 03:36:26;;;;;;;6.53;4.88;;;12.50;99.90;;;;;;2078074;28;20021;-65
2024/03/14 03:37:28;;;;;;;7.63;4.93;;;12.50;99.90;;;;;;2076863;28;20474;-65
2024/03/14 03:38:29;;;;;;;6.47;4.72;;;12.50;99.90;;;;;;2077659;28;20885;-66
2024/03/14 03:39:31;;;;;;;5.65;4.40;;;12.50;99.90;;;;;;2077803;28;20151;-66
2024/03/14 03:40:37;;;;;;;9.65;5.35;;;12.40;99.90;;;;;;2077466;28;20405;-65
2024/03/14 03:41:37;;;;;;;5.75;5.05;;;12.40;99.90;;;;;;2077470;28;20410;-65
2024/03/14 03:42:38;;;;;;;7.43;5.25;;;12.40;99.90;;;;;;2076754;28;20060;-65
2024/03/14 03:43:39;;;;;;;8.15;4.57;;;12.40;99.90;;;;;;2077301;28;20084;-65
2024/03/14 03:44:42;;;;;;;7.57;4.93;;;12.40;99.90;;;;;;2077227;28;20398;-65
2024/03/14 03:45:44;;;;;;;5.70;4.20;;;12.40;99.90;;;;;;2076278;28;20716;-65
2024/03/14 03:46:44;;;;;;;5.93;4.95;;;12.40;99.90;;;;;;2078593;28;20017;-65
2024/03/14 03:47:45;;;;;;;5.18;4.05;;;12.40;99.90;;;;;;2077900;28;20465;-66
2024/03/14 03:48:46;;;;;;;4.85;4.30;;;12.30;99.90;;;;;;2077191;28;20133;-66
2024/03/14 03:49:47;;;;;;;6.65;4.28;;;12.30;99.90;;;;;;2077713;28;20022;-65
2024/03/14 03:50:48;;;;;;;4.30;3.90;;;12.30;99.90;;;;;;2076439;28;20152;-65
2024/03/14 03:51:49;;;;;;;6.18;4.28;;;12.30;99.90;;;;;;2070866;28;20126;-65
2024/03/14 03:52:50;;;;;;;6.40;4.43;;;12.30;99.90;;;;;;2071666;28;20038;-66
2024/03/14 03:53:52;;;;;;;4.95;4.45;;;12.30;99.90;;;;;;2076234;28;20351;-66
2024/03/14 03:54:53;;;;;;;8.27;4.72;;;12.30;99.90;;;;;;2069576;28;20490;-65
2024/03/14 03:55:54;;;;;;;6.07;4.90;;;12.20;99.90;;;;;;2069423;28;20048;-66
2024/03/14 03:56:54;;;;;;;6.38;4.32;;;12.20;99.90;;;;;;2078951;28;20096;-65
2024/03/14 03:57:58;;;;;;;5.72;4.05;;;12.20;99.90;;;;;;2079837;28;20396;-65
2024/03/14 03:58:58;;;;;;;5.93;4.40;;;12.20;99.90;;;;;;2077418;28;20017;-65
2024/03/14 03:59:59;;;;;;;7.25;5.03;;;12.20;99.90;;;;;;2078348;28;20018;-66
2024/03/14 04:01:06;;;;;;;5.97;4.53;;;12.20;99.90;;;;;;2077870;28;20076;-66
2024/03/14 04:02:10;;;;;;;5.88;4.80;;;12.10;99.90;;;;;;2075287;28;20449;-65
2024/03/14 04:03:11;;;;;;;8.45;4.43;;;12.10;99.90;;;;;;2075104;28;20033;-65
2024/03/14 04:04:12;;;;;;;6.85;5.03;;;12.10;99.90;;;;;;2076773;28;20028;-65
2024/03/14 04:05:13;;;;;;;5.60;4.47;;;12.10;99.90;;;;;;2077826;28;20026;-66
2024/03/14 04:06:15;;;;;;;5.82;4.68;;;12.10;99.90;;;;;;2076838;28;20037;-66
2024/03/14 04:07:19;;;;;;;9.93;4.68;;;12.10;99.90;;;;;;2075774;28;20017;-65
2024/03/14 04:08:20;;;;;;;7.43;4.90;;;12.00;99.90;;;;;;2076247;28;20635;-64
2024/03/14 04:09:21;;;;;;;5.72;4.90;;;12.00;99.90;;;;;;2077915;28;20029;-67
2024/03/14 04:10:24;;;;;;;5.30;4.35;;;12.00;99.90;;;;;;2079227;28;20020;-64
2024/03/14 04:11:31;;;;;;;5.00;4.53;;;11.90;99.90;;;;;;2077217;28;20066;-66
2024/03/14 04:12:31;;;;;;;6.47;4.55;;;12.00;99.90;;;;;;2078755;28;20105;-64
2024/03/14 04:13:32;;;;;;;7.90;4.80;;;11.90;99.90;;;;;;2075106;28;20021;-65
2024/03/14 04:14:32;;;;;;;7.78;4.22;;;11.90;99.90;;;;;;2076429;28;20111;-64
2024/03/14 04:15:33;;;;;;;7.63;4.88;;;11.90;99.90;;;;;;2076083;28;20072;-65
2024/03/14 04:16:34;;;;;;;5.68;4.53;;;11.90;99.90;;;;;;2075370;28;20157;-64
2024/03/14 04:17:35;;;;;;;6.43;4.82;;;11.90;99.90;;;;;;2079297;28;20030;-66
2024/03/14 04:18:36;;;;;;;8.27;4.22;;;11.90;99.90;;;;;;2077921;28;20029;-65
2024/03/14 04:19:37;;;;;;;5.88;4.90;;;11.90;99.90;;;;;;2075285;28;20437;-64
2024/03/14 04:20:37;;;;;;;5.07;4.22;;;11.90;99.90;;;;;;2076805;28;20026;-66
2024/03/14 04:21:38;;;;;;;5.22;4.70;;;11.90;99.90;;;;;;2075498;28;20429;-65
2024/03/14 04:22:41;;;;;;;7.70;5.07;;;11.90;99.90;;;;;;2074533;28;20569;-65
2024/03/14 04:23:42;;;;;;;6.53;4.50;;;11.80;99.90;;;;;;2078114;28;20037;-64
2024/03/14 04:24:42;;;;;;;5.00;4.30;;;11.80;99.90;;;;;;2075587;28;20105;-66
2024/03/14 04:25:43;;;;;;;7.97;4.80;;;11.80;99.90;;;;;;2076422;28;20030;-65
2024/03/14 04:26:43;;;;;;;5.22;4.45;;;11.80;99.90;;;;;;2076213;28;20494;-65
2024/03/14 04:27:45;;;;;;;5.22;4.15;;;11.80;99.90;;;;;;2076102;28;20029;-65
2024/03/14 04:28:46;;;;;;;8.55;4.82;;;11.80;99.90;;;;;;2076864;28;20101;-66
2024/03/14 04:29:47;;;;;;;5.47;4.97;;;11.80;99.90;;;;;;2076677;28;20575;-65
2024/03/14 04:30:48;;;;;;;4.95;4.32;;;11.70;99.90;;;;;;2077499;28;20017;-65
2024/03/14 04:31:50;;;;;;;5.72;4.63;;;11.70;99.90;;;;;;2076671;28;20061;-66
2024/03/14 04:32:51;;;;;;;5.22;4.70;;;11.70;99.90;;;;;;2076328;28;20029;-65
2024/03/14 04:33:52;;;;;;;5.47;4.70;;;11.70;99.90;;;;;;2070674;28;20030;-66
2024/03/14 04:34:53;;;;;;;5.70;4.85;;;11.70;99.90;;;;;;2073039;28;20598;-65
2024/03/14 04:35:56;;;;;;;5.22;4.72;;;11.60;99.90;;;;;;2074383;28;20084;-65
2024/03/14 04:36:57;;;;;;;6.18;4.72;;;11.70;99.90;;;;;;2076206;28;20049;-64
2024/03/14 04:37:58;;;;;;;5.05;4.50;;;11.60;99.90;;;;;;2076606;28;20513;-64
2024/03/14 04:38:58;;;;;;;5.60;4.63;;;11.60;99.90;;;;;;2074940;28;20490;-65
2024/03/14 04:39:59;;;;;;;5.15;4.50;;;11.70;99.90;;;;;;2074664;28;20025;-65
2024/03/14 04:41:00;;;;;;;6.32;4.57;;;11.60;99.90;;;;;;2075567;28;20018;-65
2024/03/14 04:42:00;;;;;;;5.10;4.60;;;11.60;99.90;;;;;;2078391;28;20037;-65
2024/03/14 04:43:03;;;;;;;6.63;5.13;;;11.60;99.90;;;;;;2078400;28;20028;-65
2024/03/14 04:44:05;;;;;;;6.85;4.82;;;11.60;99.90;;;;;;2075740;28;20501;-66
2024/03/14 04:45:08;;;;;;;5.50;4.22;;;11.60;99.90;;;;;;2078533;28;20529;-65
2024/03/14 04:46:09;;;;;;;6.10;5.13;;;11.60;99.90;;;;;;2077262;28;20026;-65
2024/03/14 04:47:10;;;;;;;5.72;4.38;;;11.60;99.90;;;;;;2074975;28;20194;-65
2024/03/14 04:48:10;;;;;;;6.10;4.75;;;11.60;99.90;;;;;;2076943;28;20029;-65
2024/03/14 04:49:12;;;;;;;7.15;4.70;;;11.50;99.90;;;;;;2077148;28;20502;-66
2024/03/14 04:50:16;;;;;;;6.82;4.65;;;11.60;99.90;;;;;;2075166;28;20026;-65
2024/03/14 04:51:17;;;;;;;6.88;5.00;;;11.60;99.90;;;;;;2076249;28;20018;-67
2024/03/14 04:52:18;;;;;;;5.38;4.82;;;11.60;99.90;;;;;;2079682;28;20026;-65
2024/03/14 04:53:18;;;;;;;6.93;4.75;;;11.50;99.90;;;;;;2075924;28;20060;-66
2024/03/14 04:54:19;;;;;;;5.38;4.50;;;11.60;99.90;;;;;;2077938;28;20064;-65
2024/03/14 04:55:20;;;;;;;5.22;4.72;;;11.50;99.90;;;;;;2075179;28;20037;-66
2024/03/14 04:56:21;;;;;;;7.68;4.80;;;11.50;99.90;;;;;;2075726;28;20168;-67
2024/03/14 04:57:22;;;;;;;6.80;4.57;;;11.50;99.90;;;;;;2075521;28;20190;-67
2024/03/14 04:58:22;;;;;;;5.30;4.80;;;11.50;99.90;;;;;;2074725;28;20047;-66
2024/03/14 04:59:23;;;;;;;5.75;4.85;;;11.50;99.90;;;;;;2075485;28;20049;-65
2024/03/14 05:00:25;;;;;;;5.80;4.63;;;11.50;99.90;;;;;;2078536;28;20026;-65
2024/03/14 05:01:29;;;;;;;5.97;4.68;;;11.50;99.90;;;;;;2078867;28;20414;-65
2024/03/14 05:02:30;;;;;;;6.40;5.40;;;11.50;99.90;;;;;;2080108;28;20031;-63
2024/03/14 05:03:30;;;;;;;6.57;4.55;;;11.50;99.90;;;;;;2078356;28;20496;-64
2024/03/14 05:04:31;;;;;;;7.15;4.93;;;11.50;99.90;;;;;;2076647;28;20527;-65
2024/03/14 05:05:31;;;;;;;5.68;4.43;;;11.40;99.90;;;;;;2076977;28;20037;-64
2024/03/14 05:06:32;;;;;;;5.35;4.40;;;11.40;99.90;;;;;;2075902;28;20017;-65
2024/03/14 05:07:33;;;;;;;5.75;4.88;;;11.40;99.90;;;;;;2075543;28;20021;-64
2024/03/14 05:08:34;;;;;;;5.43;4.38;;;11.40;99.90;;;;;;2075667;28;20138;-64
2024/03/14 05:09:35;;;;;;;5.28;4.70;;;11.40;99.90;;;;;;2076446;28;20026;-64
2024/03/14 05:10:35;;;;;;;6.35;4.78;;;11.40;99.90;;;;;;2076152;28;20022;-64
2024/03/14 05:11:37;;;;;;;5.65;4.45;;;11.40;99.90;;;;;;2074576;28;20029;-65
2024/03/14 05:12:38;;;;;;;5.53;5.03;;;11.40;99.90;;;;;;2077252;28;20021;-64
2024/03/14 05:13:39;;;;;;;5.15;4.63;;;11.40;99.90;;;;;;2075831;28;20029;-64
2024/03/14 05:14:39;;;;;;;4.80;4.40;;;11.40;99.90;;;;;;2077515;28;20029;-63
2024/03/14 05:15:40;;;;;;;6.32;4.88;;;11.40;99.90;;;;;;2075395;28;20029;-63
2024/03/14 05:16:42;;;;;;;7.82;5.30;;;11.40;99.90;;;;;;2080138;28;20083;-64
2024/03/14 05:17:42;;;;;;;5.35;4.75;;;11.40;99.90;;;;;;2077308;28;20025;-65
2024/03/14 05:18:44;;;;;;;7.82;4.40;;;11.40;99.90;;;;;;2077752;28;20053;-65
2024/03/14 05:19:44;;;;;;;5.50;4.50;;;11.40;99.90;;;;;;2075526;28;20037;-66
2024/03/14 05:20:45;;;;;;;5.40;4.20;;;11.40;99.90;;;;;;2078890;28;20037;-63
2024/03/14 05:21:46;;;;;;;6.22;5.10;;;11.40;99.90;;;;;;2079680;28;20021;-66